• Join FlightAware (Why Join?)
  • Login
  • US Flag 
10:57PM EDT


 

Airport Tracker/Info


-or-


 

Live Flight TrackerFlight Track Log ✈ CLX659 ✈ 28-Jul-2013 ✈ KORD - ELLX / LUX

Flight Track Log - Related Links

Times and Time Zones

All times are in EDT time to prevent confusion due to time zone crossing. See the CLX659 flight status page for this flight to view local times or setup timezone preferences in your user account.

Time Position Orientation Groundspeed Altitude Reporting Facility
EDT Latitude Longitude Course Direction KTS MPH feet Rate Location/Type
11:08PM 41.9760 -87.9170 90° East 96 110  Level FlightAware
11:09PM 41.9820 -87.9240 319° Northwest 136 157 600 2,160 Climbing FlightAware
11:09PM 42.0010 -87.9440 322° Northwest 159 183 1,700 2,040 Climbing FlightAware
11:09PM 42.0090 -87.9520 323° Northwest 163 188 2,100 1,920 Climbing FlightAware
11:10PM 42.0260 -87.9680 325° Northwest 167 192 3,000 2,040 Climbing FlightAware
11:10PM 42.0350 -87.9770 323° Northwest 168 193 3,600 1,920 Climbing FlightAware
11:10PM 42.0520 -87.9940 323° Northwest 183 211 4,300 1,020 Climbing FlightAware
11:11PM 42.0750 -88.0160 325° Northwest 227 261 4,600 780 Climbing FlightAware
11:11PM 42.0880 -88.0210 344° North 243 280 4,900 1,260 Climbing FlightAware
11:11PM 42.1060 -88.0250 351° North 257 296 5,200 1,800 Climbing FlightAware
11:12PM 42.1410 -88.0330 350° North 279 321 6,200 2,340 Climbing FlightAware
11:12PM 42.1590 -88.0360 353° North 279 321 6,800 2,580 Climbing FlightAware
11:12PM 42.1880 -88.0390 356° North 286 329 7,800 2,640 Climbing FlightAware
11:13PM 42.2310 -88.0400 359° North 295 339 9,200 2,340 Climbing FlightAware
11:14PM 42.3070 -88.0390 North 316 364 11,200 1,680 Climbing FlightAware
11:14PM 42.3530 -88.0390 360° North 351 404 11,600 1,200 Climbing FlightAware
11:15PM 42.4260 -88.0380 North 383 441 12,700 2,100 Climbing FlightAware
11:16PM 42.4860 -88.0380 360° North 386 444 14,400 2,580 Climbing FlightAware
11:16PM 42.5280 -88.0290 North 404 465 15,200 2,520 Climbing FlightAware
11:17PM 42.5950 -87.9720 32° Northeast 424 488 17,100 2,700 Climbing FlightAware
11:17PM 42.6450 -87.9020 46° Northeast 430 495 18,700 2,400 Climbing FlightAware
11:18PM 42.6990 -87.8210 48° Northeast 438 504 20,200 1,980 Climbing FlightAware
11:19PM 42.7600 -87.7310 47° Northeast 452 520 21,500 1,620 Climbing FlightAware
11:19PM 42.8160 -87.6380 51° Northeast 475 547 22,600 1,680 Climbing FlightAware
11:20PM 42.8400 -87.5190 75° East 499 574 23,800 1,680 Climbing FlightAware
11:21PM 42.8540 -87.3860 82° East 508 585 24,900 1,500 Climbing FlightAware
11:22PM 42.8690 -87.2490 81° East 516 594 26,000 1,500 Climbing FlightAware
11:22PM 42.8810 -87.1280 82° East 521 600 27,000 1,620 Climbing FlightAware
11:23PM 42.8970 -86.9750 82° East 524 603 28,300 1,920 Climbing FlightAware
11:24PM 42.9100 -86.8480 82° East 515 593 29,800 1,980 Climbing FlightAware
11:24PM 42.9250 -86.7040 82° East 513 590 31,100 1,680 Climbing FlightAware
11:25PM 42.9380 -86.5770 82° East 511 588 32,200 1,380 Climbing FlightAware
11:26PM 42.9520 -86.4350 82° East 514 592 33,100 1,020 Climbing FlightAware
11:26PM 42.9630 -86.3190 83° East 519 597 33,600 900 Climbing FlightAware
11:27PM 42.9760 -86.1900 82° East 521 600 34,300 900 Climbing FlightAware
11:28PM 42.9890 -86.0510 83° East 526 605 34,900 480 Climbing FlightAware
11:28PM 43.0020 -85.9140 83° East 523 602 35,000 60 Climbing FlightAware
11:29PM 43.0160 -85.7690 82° East 524 603 35,000  Level FlightAware
11:30PM 43.0270 -85.6390 83° East 523 602 35,000  Level FlightAware
11:31PM 43.0400 -85.4960 83° East 521 600 35,000  Level FlightAware
11:31PM 43.0510 -85.3790 83° East 519 597 35,000  Level FlightAware
11:32PM 43.0630 -85.2460 83° East 517 595 35,000  Level FlightAware
11:32PM 43.0740 -85.1190 83° East 516 594 35,000  Level FlightAware
11:33PM 43.0850 -84.9930 83° East 515 593 35,000  Level FlightAware
11:34PM 43.0930 -84.8930 84° East 516 594 35,000  Level FlightAware
11:34PM 43.1060 -84.7350 84° East 516 594 35,000  Level FlightAware
11:35PM 43.1170 -84.6050 83° East 519 597 35,000  Level FlightAware
11:36PM 43.1280 -84.4650 84° East 521 600 35,000  Level FlightAware
11:37PM 43.1400 -84.3160 84° East 524 603 35,000  Level FlightAware
11:37PM 43.1500 -84.1950 83° East 525 604 35,000  Level FlightAware
11:38PM 43.1620 -84.0450 84° East 528 608 35,000  Level FlightAware
11:39PM 43.1710 -83.9250 84° East 529 609 35,000  Level FlightAware
11:39PM 43.1810 -83.7940 84° East 530 610 35,000  Level FlightAware
11:40PM 43.1920 -83.6450 84° East 531 611 35,000  Level FlightAware
11:41PM 43.2000 -83.5300 85° East 531 611 35,000  Level FlightAware
11:41PM 43.2100 -83.3860 85° East 531 611 35,000  Level FlightAware
11:42PM 43.2200 -83.2500 84° East 531 611 35,000  Level FlightAware
11:43PM 43.2300 -83.1030 85° East 531 611 35,000  Level FlightAware
11:43PM 43.2390 -82.9720 85° East 531 611 35,000  Level FlightAware
11:44PM 43.2490 -82.8210 85° East 531 611 35,000  Level FlightAware
11:45PM 43.2660 -82.6930 80° East 526 605 35,000  Level FlightAware
11:45PM 43.3020 -82.5610 69° East 522 601 35,000  Level FlightAware
11:46PM 43.3410 -82.4310 68° East 524 603 35,000  Level FlightAware
11:47PM 43.3790 -82.3020 68° East 525 604 35,000  Level FlightAware
11:47PM 43.4090 -82.1970 68° East 526 605 35,000  Level FlightAware
11:48PM 43.4470 -82.0650 68° East 527 606 35,000  Level FlightAware
11:49PM 43.4850 -81.9360 68° East 527 606 35,000  Level FlightAware
11:50PM 43.5180 -81.8190 69° East 528 608 35,000  Level FlightAware
11:50PM 43.5590 -81.6760 68° East 528 608 35,000  Level FlightAware
11:51PM 43.5970 -81.5420 69° East 528 608 35,000  Level FlightAware
11:52PM 43.6380 -81.4000 68° East 527 606 35,000  Level FlightAware
11:52PM 43.6650 -81.3040 69° East 526 605 35,000  Level FlightAware
11:53PM 43.6960 -81.1910 69° East 525 604 35,000  Level FlightAware
11:54PM 43.7360 -81.0490 69° East 524 603 35,000  Level FlightAware
11:54PM 43.7790 -80.8930 69° East 524 603 35,000  Level FlightAware
11:55PM 43.8260 -80.7230 69° East 525 604 35,000  Level FlightAware
11:56PM 43.8520 -80.6280 69° East 525 604 35,000  Level FlightAware
11:57PM 43.8870 -80.5010 69° East 524 603 35,000  Level FlightAware
11:57PM 43.9280 -80.3490 69° East 524 603 35,000  Level FlightAware
11:58PM 43.9660 -80.2070 70° East 524 603 35,000  Level FlightAware
11:59PM 44.0010 -80.0780 69° East 525 604 35,000  Level FlightAware
11:59PM 44.0300 -79.9690 70° East 525 604 35,000  Level FlightAware
12:00AM 44.0650 -79.8350 70° East 526 605 35,000  Level FlightAware
12:01AM 44.1020 -79.6980 69° East 527 606 35,000  Level FlightAware
12:01AM 44.1370 -79.5910 65° Northeast 538 619 35,000  Level FlightAware
12:02AM 44.2000 -79.4450 59° Northeast 540 621 35,000  Level FlightAware
12:03AM 44.2610 -79.3050 59° Northeast 539 620 35,000  Level FlightAware
12:04AM 44.3130 -79.1870 58° Northeast 539 620 35,000  Level FlightAware
12:04AM 44.3720 -79.0520 59° Northeast 539 620 35,000  Level FlightAware
12:05AM 44.4220 -78.9350 59° Northeast 538 619 35,000  Level FlightAware
12:06AM 44.4790 -78.8030 59° Northeast 536 617 35,000  Level FlightAware
12:06AM 44.5180 -78.7120 59° Northeast 535 616 35,000  Level FlightAware
12:07AM 44.5760 -78.5770 59° Northeast 540 621 35,000  Level FlightAware
12:08AM 44.6270 -78.4570 59° Northeast 542 624 35,000  Level FlightAware
12:08AM 44.6730 -78.3500 59° Northeast 544 626 35,000  Level FlightAware
12:09AM 44.7300 -78.2160 59° Northeast 545 627 35,000  Level FlightAware
12:10AM 44.7820 -78.0910 60° Northeast 545 627 35,000  Level FlightAware
12:10AM 44.8390 -77.9560 59° Northeast 544 626 35,000  Level FlightAware
12:11AM 44.8910 -77.8320 59° Northeast 544 626 35,000  Level FlightAware
12:12AM 44.9410 -77.7110 60° Northeast 543 625 35,000  Level FlightAware
12:12AM 45.0040 -77.5800 56° Northeast 551 634 35,000  Level FlightAware
12:13AM 45.0560 -77.4880 51° Northeast 553 636 35,000  Level FlightAware
12:14AM 45.1220 -77.3700 52° Northeast 555 639 35,000  Level FlightAware
12:14AM 45.1870 -77.2530 52° Northeast 555 639 35,000  Level FlightAware
12:15AM 45.2500 -77.1390 52° Northeast 552 635 35,000  Level FlightAware
12:16AM 45.3130 -77.0250 52° Northeast 552 635 35,000  Level FlightAware
12:16AM 45.3830 -76.8980 52° Northeast 553 636 35,000  Level FlightAware
12:17AM 45.4460 -76.7830 52° Northeast 553 636 35,000  Level FlightAware
12:18AM 45.5060 -76.6720 52° Northeast 555 639 35,000  Level FlightAware
12:18AM 45.5700 -76.5540 52° Northeast 556 640 35,000  Level FlightAware
12:19AM 45.6430 -76.4200 52° Northeast 559 643 35,000  Level FlightAware
12:19AM 45.6520 -76.4030 53° Northeast 559 643 35,000  Level FlightAware
12:20AM 45.7610 -76.2010 52° Northeast 559 643 35,000  Level FlightAware
12:21AM 45.8310 -76.0700 52° Northeast 561 646 35,000  Level FlightAware
12:22AM 45.8980 -75.9430 53° Northeast 566 651 35,000  Level FlightAware
12:22AM 45.9450 -75.8550 52° Northeast 566 651 35,000  Level FlightAware
12:24AM 46.0710 -75.6150 53° Northeast 565 650 35,000  Level FlightAware
12:24AM 46.1430 -75.4780 53° Northeast 567 652 35,000  Level FlightAware
12:25AM 46.1980 -75.3720 53° Northeast 569 655 35,000  Level FlightAware
12:26AM 46.2690 -75.2350 53° Northeast 568 654 35,000  Level FlightAware
12:26AM 46.3310 -75.1140 53° Northeast 568 654 35,000  Level FlightAware
12:27AM 46.4030 -74.9750 53° Northeast 567 652 35,000  Level FlightAware
12:28AM 46.4650 -74.8530 54° Northeast 567 652 35,000  Level FlightAware
12:28AM 46.5200 -74.7460 53° Northeast 567 652 35,000  Level FlightAware
12:29AM 46.5910 -74.6050 54° Northeast 566 651 35,000  Level FlightAware
12:30AM 46.6510 -74.4860 54° Northeast 559 643 35,000  Level FlightAware
12:30AM 46.7040 -74.3800 54° Northeast 556 640 35,000  Level FlightAware
12:31AM 46.7660 -74.2570 54° Northeast 553 636 35,000  Level FlightAware
12:32AM 46.8110 -74.1660 54° Northeast 556 640 35,000  Level FlightAware
12:32AM 46.8640 -74.0590 54° Northeast 555 639 35,000  Level FlightAware
12:33AM 46.9310 -73.9240 54° Northeast 553 636 35,000  Level FlightAware
12:34AM 46.9910 -73.8020 54° Northeast 553 636 35,000  Level FlightAware
12:34AM 47.0590 -73.6640 54° Northeast 555 639 35,000  Level FlightAware
12:35AM 47.1180 -73.5420 55° Northeast 556 640 35,000  Level FlightAware
12:36AM 47.1780 -73.4200 54° Northeast 557 641 35,000  Level FlightAware
12:36AM 47.2370 -73.2970 55° Northeast 558 642 35,000  Level FlightAware
12:37AM 47.2980 -73.1710 54° Northeast 561 646 35,000  Level FlightAware
12:38AM 47.3570 -73.0470 55° Northeast 562 647 35,000  Level FlightAware
12:38AM 47.4130 -72.9300 55° Northeast 562 647 35,000  Level FlightAware
12:39AM 47.5040 -72.7370 55° Northeast 562 647 35,000  Level FlightAware
12:41AM 46.6530 -74.4790 235° Southwest 562 647 35,000  Level FlightAware
12:42AM 47.7000 -72.3200 54° Northeast 562 647 35,000  Level FlightAware
12:42AM 47.7650 -72.1780 56° Northeast 565 650 35,000  Level FlightAware
12:43AM 47.8430 -72.0110 55° Northeast 569 655 35,000  Level FlightAware
12:44AM 47.9160 -71.8500 56° Northeast 570 656 35,000  Level FlightAware
12:45AM 48.0280 -71.6050 56° Northeast 569 655 35,000  Level FlightAware
12:47AM 48.1380 -71.3610 56° Northeast 570 656 35,000  Level FlightAware
12:47AM 48.1930 -71.2380 56° Northeast 570 656 35,000  Level FlightAware
12:48AM 48.2540 -71.1030 56° Northeast 568 654 35,000  Level FlightAware
12:48AM 48.3100 -70.9770 56° Northeast 567 652 35,000  Level FlightAware
12:49AM 48.3890 -70.7970 56° Northeast 567 652 35,000  Level FlightAware
12:50AM 48.4470 -70.6650 56° Northeast 563 648 35,000  Level FlightAware
12:51AM 48.5000 -70.5450 56° Northeast 562 647 35,000  Level FlightAware
12:52AM 48.5000 -70.5460 270° West 558 642 35,000  Level FlightAware
12:52AM 48.5440 -70.4470 56° Northeast 558 642 35,000  Level FlightAware
12:53AM 48.5180 -70.5060 236° Southwest 558 642 35,000  Level FlightAware
12:54AM 48.5620 -70.4070 56° Northeast 558 642 35,000  Level FlightAware
12:54AM 48.6060 -70.3080 56° Northeast 558 642 35,000  Level FlightAware
12:55AM 48.6650 -70.1760 56° Northeast 558 642 35,000  Level FlightAware
12:56AM 48.7090 -70.0760 56° Northeast 558 642 35,000  Level FlightAware
12:56AM 48.7530 -69.9770 56° Northeast 558 642 35,000  Level FlightAware
12:57AM 48.8120 -69.8440 56° Northeast 558 642 35,000  Level FlightAware
12:58AM 48.8560 -69.7450 56° Northeast 558 642 35,000  Level FlightAware
12:58AM 48.9160 -69.6090 56° Northeast 558 642 35,000  Level FlightAware
12:59AM 48.9600 -69.5100 56° Northeast 558 642 35,000  Level FlightAware
01:00AM 49.0190 -69.3770 56° Northeast 558 642 35,000  Level FlightAware
01:00AM 49.0630 -69.2770 56° Northeast 558 642 35,000  Level FlightAware
01:01AM 49.1100 -69.1710 56° Northeast 558 642 35,000  Level FlightAware
01:02AM 49.1540 -69.0710 56° Northeast 558 642 35,000  Level FlightAware
01:03AM 49.4500 -68.2333 56° Northeast 550 633 35,000  Level Gander Center
01:04AM 49.5333 -68.0333 57° Northeast 550 633 35,000  Level Gander Center
01:05AM 49.6167 -67.8333 57° Northeast 550 633 35,000  Level Gander Center
01:06AM 49.7000 -67.6500 55° Northeast 550 633 35,000  Level Gander Center
01:07AM 49.7667 -67.4500 63° Northeast 550 633 35,000  Level Gander Center
01:08AM 49.8500 -67.2167 61° Northeast 550 633 35,000  Level Gander Center
01:09AM 49.9333 -67.0333 55° Northeast 550 633 35,000  Level Gander Center
01:10AM 50.0000 -66.8333 63° Northeast 550 633 35,000  Level Gander Center
01:11AM 50.0833 -66.6333 57° Northeast 550 633 35,000  Level Gander Center
01:12AM 50.1500 -66.4000 66° East 560 644 35,000  Level Gander Center
01:13AM 50.2333 -66.2000 57° Northeast 550 633 35,000  Level Gander Center
01:14AM 50.3000 -66.0000 62° Northeast 540 621 35,000  Level Gander Center
01:15AM 50.3833 -65.8000 57° Northeast 540 621 35,000  Level Gander Center
01:16AM 50.4500 -65.5833 64° Northeast 540 621 35,000  Level Gander Center
01:17AM 50.5333 -65.3833 57° Northeast 540 621 35,000  Level Gander Center
01:18AM 50.6000 -65.1500 66° East 540 621 35,000  Level Gander Center
01:19AM 50.6833 -64.9500 57° Northeast 550 633 35,000  Level Gander Center
01:20AM 50.7500 -64.7500 62° Northeast 550 633 35,000  Level Gander Center
01:21AM 50.8333 -64.5333 59° Northeast 550 633 35,000  Level Gander Center
01:22AM 50.9000 -64.3333 62° Northeast 550 633 35,000  Level Gander Center
01:23AM 50.9667 -64.1167 64° Northeast 540 621 35,000  Level Gander Center
01:24AM 51.0500 -63.9167 56° Northeast 550 633 35,000  Level Gander Center
01:25AM 51.1167 -63.6833 65° Northeast 540 621 35,000  Level Gander Center
01:26AM 51.1833 -63.4667 64° Northeast 540 621 35,000  Level Gander Center
01:27AM 51.2500 -63.2667 62° Northeast 540 621 35,000  Level Gander Center
01:28AM 51.3333 -63.0500 58° Northeast 540 621 35,000  Level Gander Center
01:29AM 51.4000 -62.8333 64° Northeast 530 610 35,000  Level Gander Center
01:30AM 51.4667 -62.6167 64° Northeast 540 621 35,000  Level Gander Center
01:31AM 51.5333 -62.4167 62° Northeast 530 610 35,000  Level Gander Center
01:32AM 51.6000 -62.2000 64° Northeast 540 621 35,000  Level Gander Center
01:33AM 51.6667 -61.9833 64° Northeast 530 610 35,000  Level Gander Center
01:34AM 51.7333 -61.7667 64° Northeast 530 610 35,000  Level Gander Center
01:35AM 51.7833 -61.5833 66° East 530 610 35,000  Level Gander Center
01:36AM 51.8500 -61.3333 67° East 530 610 35,000  Level Gander Center
01:37AM 51.9167 -61.1500 59° Northeast 530 610 35,000  Level Gander Center
01:38AM 51.9833 -60.9000 67° East 530 610 35,000  Level Gander Center
01:39AM 52.0500 -60.7167 59° Northeast 520 598 35,000  Level Gander Center
01:40AM 52.1167 -60.5000 63° Northeast 520 598 35,000  Level Gander Center
01:41AM 52.1833 -60.2667 65° Northeast 520 598 35,000  Level Gander Center
01:42AM 52.2500 -60.0500 63° Northeast 520 598 35,000  Level Gander Center
01:43AM 52.3000 -59.8333 69° East 520 598 35,000  Level Gander Center
01:44AM 52.3667 -59.6167 63° Northeast 520 598 35,000  Level Gander Center
01:45AM 52.4333 -59.4167 61° Northeast 520 598 35,000  Level Gander Center
01:46AM 52.5000 -59.2000 63° Northeast 520 598 35,000  Level Gander Center
01:47AM 52.5500 -58.9667 71° East 520 598 35,000  Level Gander Center
01:48AM 52.6167 -58.7500 63° Northeast 520 598 35,000  Level Gander Center
01:49AM 52.6833 -58.5500 61° Northeast 520 598 35,000  Level Gander Center
01:50AM 52.7500 -58.3500 61° Northeast 510 587 35,000  Level Gander Center
01:51AM 52.8167 -58.1333 63° Northeast 510 587 35,000  Level Gander Center
01:52AM 52.8833 -57.9333 61° Northeast 510 587 35,000  Level Gander Center
01:53AM 52.9667 -57.7333 55° Northeast 520 598 35,000  Level Gander Center
01:54AM 53.0167 -57.5333 67° East 520 598 35,000  Level Gander Center
01:55AM 53.1000 -57.3000 59° Northeast 520 598 35,000  Level Gander Center
01:56AM 53.1667 -57.1000 61° Northeast 520 598 35,000  Level Gander Center
01:57AM 53.2333 -56.9000 61° Northeast 520 598 35,000  Level Gander Center
01:58AM 53.3167 -56.6833 57° Northeast 510 587 35,000  Level Gander Center
01:59AM 53.3667 -56.4833 67° East 510 587 35,000  Level Gander Center
02:00AM 53.4500 -56.2500 59° Northeast 510 587 35,000  Level Gander Center
02:01AM 53.5000 -56.0500 67° East 510 587 35,000  Level Gander Center
02:02AM 53.5833 -55.8500 55° Northeast 510 587 35,000  Level Gander Center
02:03AM 53.6333 -55.6333 69° East 510 587 35,000  Level Gander Center
02:04AM 53.7000 -55.4000 64° Northeast 510 587 35,000  Level Gander Center
02:05AM 53.7833 -55.2000 55° Northeast 510 587 35,000  Level Gander Center
02:06AM 53.8167 -54.9833 75° East 520 598 35,000  Level Gander Center
02:07AM 53.8500 -54.7333 77° East 520 598 35,000  Level Gander Center
02:08AM 53.8667 -54.5000 83° East 530 610 35,000  Level Gander Center
02:09AM 53.8833 -54.2500 83° East 530 610 35,000  Level Gander Center
02:10AM 53.8833 -54.0167 90° East 530 610 35,000  Level Gander Center
02:11AM 53.8833 -53.7500 90° East 540 621 35,000  Level Gander Center
02:12AM 53.9000 -53.4667 84° East 540 621 35,000  Level Gander Center
02:13AM 53.9000 -53.2500 90° East 530 610 35,000  Level Gander Center
02:14AM 53.9167 -52.9833 84° East 540 621 35,000  Level Gander Center
02:15AM 53.9167 -52.7500 90° East 540 621 35,000  Level Gander Center
02:16AM 53.9333 -52.5000 83° East 540 621 35,000  Level Gander Center
02:17AM 53.9333 -52.2333 90° East 540 621 35,000  Level Gander Center
02:18AM 53.9500 -51.9833 83° East 540 621 35,000  Level Gander Center
02:19AM 53.9333 -51.7167 96° East 540 621 35,000  Level Gander Center
02:20AM 53.9333 -51.4667 90° East 530 610 35,000  Level Gander Center
02:21AM 53.9500 -51.2333 83° East 530 610 35,000  Level Gander Center
02:22AM 53.9667 -50.9667 84° East 530 610 35,000  Level Gander Center
02:23AM 53.9667 -50.7167 90° East 530 610 35,000  Level Gander Center
02:24AM 53.9500 -50.4833 97° East 520 598 35,000  Level Gander Center
02:25AM 53.9667 -50.2333 83° East 520 598 35,000  Level Gander Center
02:26AM 53.9833 -50.0000 83° East 520 598 35,000  Level Gander Center
02:27AM 53.9667 -49.7333 96° East 520 598 35,000  Level Gander Center
02:29AM 54.0329 -49.2855 76° East  Level FlightAware Approximate
02:36AM 54.2567 -47.6663 76° East  Level FlightAware Approximate
02:37AM 54.2869 -47.4336 77° East  Level FlightAware Approximate
02:38AM 54.3166 -47.2006 78° East  Level FlightAware Approximate
02:39AM 54.3459 -46.9672 78° East  Level FlightAware Approximate
02:40AM 54.3748 -46.7334 78° East  Level FlightAware Approximate
02:41AM 54.4032 -46.4994 78° East  Level FlightAware Approximate
02:42AM 54.4311 -46.2650 78° East  Level FlightAware Approximate
02:43AM 54.4586 -46.0304 79° East  Level FlightAware Approximate
02:44AM 54.4856 -45.7954 79° East  Level FlightAware Approximate
02:45AM 54.5122 -45.5601 79° East  Level FlightAware Approximate
02:46AM 54.5383 -45.3245 79° East  Level FlightAware Approximate
02:47AM 54.5640 -45.0886 79° East  Level FlightAware Approximate
02:48AM 54.5892 -44.8523 79° East  Level FlightAware Approximate
02:49AM 54.6139 -44.6159 80° East  Level FlightAware Approximate
02:50AM 54.6382 -44.3791 80° East  Level FlightAware Approximate
02:51AM 54.6620 -44.1420 80° East  Level FlightAware Approximate
02:52AM 54.6853 -43.9047 80° East  Level FlightAware Approximate
02:53AM 54.7082 -43.6671 80° East  Level FlightAware Approximate
02:54AM 54.7307 -43.4292 81° East  Level FlightAware Approximate
02:55AM 54.7526 -43.1911 81° East  Level FlightAware Approximate
02:56AM 54.7741 -42.9527 81° East  Level FlightAware Approximate
02:57AM 54.7951 -42.7141 81° East  Level FlightAware Approximate
02:58AM 54.8157 -42.4752 81° East  Level FlightAware Approximate
02:59AM 54.8358 -42.2361 82° East  Level FlightAware Approximate
03:00AM 54.8554 -41.9967 82° East  Level FlightAware Approximate
03:01AM 54.8745 -41.7572 82° East  Level FlightAware Approximate
03:02AM 54.8932 -41.5174 82° East  Level FlightAware Approximate
03:03AM 54.9114 -41.2773 82° East  Level FlightAware Approximate
03:04AM 54.9291 -41.0371 83° East  Level FlightAware Approximate
03:05AM 54.9463 -40.7966 83° East  Level FlightAware Approximate
03:06AM 54.9631 -40.5560 83° East  Level FlightAware Approximate
03:07AM 54.9794 -40.3151 83° East  Level FlightAware Approximate
03:08AM 54.9952 -40.0741 83° East  Level FlightAware Approximate
03:09AM 55.0068 -39.8321 86° East  Level FlightAware Approximate
03:10AM 55.0162 -39.5899 86° East  Level FlightAware Approximate
03:11AM 55.0251 -39.3476 86° East  Level FlightAware Approximate
03:12AM 55.0335 -39.1052 86° East  Level FlightAware Approximate
03:13AM 55.0414 -38.8626 87° East  Level FlightAware Approximate
03:14AM 55.0489 -38.6200 87° East  Level FlightAware Approximate
03:15AM 55.0558 -38.3773 87° East  Level FlightAware Approximate
03:16AM 55.0623 -38.1345 87° East  Level FlightAware Approximate
03:17AM 55.0683 -37.8916 87° East  Level FlightAware Approximate
03:18AM 55.0738 -37.6487 88° East  Level FlightAware Approximate
03:19AM 55.0788 -37.4057 88° East  Level FlightAware Approximate
03:20AM 55.0834 -37.1626 88° East  Level FlightAware Approximate
03:21AM 55.0875 -36.9195 88° East  Level FlightAware Approximate
03:22AM 55.0910 -36.6764 88° East  Level FlightAware Approximate
03:23AM 55.0942 -36.4332 89° East  Level FlightAware Approximate
03:24AM 55.0968 -36.1899 89° East  Level FlightAware Approximate
03:25AM 55.0989 -35.9467 89° East  Level FlightAware Approximate
03:26AM 55.1005 -35.7034 89° East  Level FlightAware Approximate
03:27AM 55.1017 -35.4601 89° East  Level FlightAware Approximate
03:28AM 55.1024 -35.2168 90° East  Level FlightAware Approximate
03:29AM 55.1026 -34.9735 90° East  Level FlightAware Approximate
03:30AM 55.1023 -34.7301 90° East  Level FlightAware Approximate
03:31AM 55.1015 -34.4868 90° East  Level FlightAware Approximate
03:32AM 55.1002 -34.2435 90° East  Level FlightAware Approximate
03:33AM 55.0985 -34.0003 91° East  Level FlightAware Approximate
03:34AM 55.0962 -33.7570 91° East  Level FlightAware Approximate
03:35AM 55.0935 -33.5138 91° East  Level FlightAware Approximate
03:36AM 55.0903 -33.2706 91° East  Level FlightAware Approximate
03:37AM 55.0866 -33.0275 91° East  Level FlightAware Approximate
03:38AM 55.0825 -32.7844 92° East  Level FlightAware Approximate
03:39AM 55.0778 -32.5413 92° East  Level FlightAware Approximate
03:40AM 55.0727 -32.2983 92° East  Level FlightAware Approximate
03:41AM 55.0670 -32.0554 92° East  Level FlightAware Approximate
03:42AM 55.0609 -31.8125 92° East  Level FlightAware Approximate
03:43AM 55.0543 -31.5698 93° East  Level FlightAware Approximate
03:44AM 55.0473 -31.3271 93° East  Level FlightAware Approximate
03:45AM 55.0397 -31.0845 93° East  Level FlightAware Approximate
03:46AM 55.0317 -30.8420 93° East  Level FlightAware Approximate
03:47AM 55.0232 -30.5996 93° East  Level FlightAware Approximate
03:48AM 55.0141 -30.3573 94° East  Level FlightAware Approximate
03:49AM 55.0047 -30.1151 94° East  Level FlightAware Approximate
03:50AM 55.0051 -29.8730 86° East  Level FlightAware Approximate
03:51AM 55.0146 -29.6308 86° East  Level FlightAware Approximate
03:52AM 55.0236 -29.3885 86° East  Level FlightAware Approximate
03:53AM 55.0321 -29.1461 86° East  Level FlightAware Approximate
03:54AM 55.0401 -28.9036 87° East  Level FlightAware Approximate
03:55AM 55.0476 -28.6610 87° East  Level FlightAware Approximate
03:56AM 55.0547 -28.4183 87° East  Level FlightAware Approximate
03:57AM 55.0612 -28.1755 87° East  Level FlightAware Approximate
03:58AM 55.0673 -27.9326 87° East  Level FlightAware Approximate
03:59AM 55.0729 -27.6897 88° East  Level FlightAware Approximate
04:00AM 55.0780 -27.4467 88° East  Level FlightAware Approximate
04:01AM 55.0827 -27.2037 88° East  Level FlightAware Approximate
04:02AM 55.0868 -26.9606 88° East  Level FlightAware Approximate
04:03AM 55.0905 -26.7174 88° East  Level FlightAware Approximate
04:04AM 55.0937 -26.4742 89° East  Level FlightAware Approximate
04:05AM 55.0964 -26.2310 89° East  Level FlightAware Approximate
04:06AM 55.0986 -25.9877 89° East  Level FlightAware Approximate
04:07AM 55.1003 -25.7445 89° East  Level FlightAware Approximate
04:08AM 55.1015 -25.5012 89° East  Level FlightAware Approximate
04:09AM 55.1023 -25.2579 90° East  Level FlightAware Approximate
04:10AM 55.1026 -25.0145 90° East  Level FlightAware Approximate
04:11AM 55.1024 -24.7712 90° East  Level FlightAware Approximate
04:12AM 55.1017 -24.5279 90° East  Level FlightAware Approximate
04:13AM 55.1005 -24.2846 90° East  Level FlightAware Approximate
04:14AM 55.0988 -24.0413 91° East  Level FlightAware Approximate
04:15AM 55.0967 -23.7981 91° East  Level FlightAware Approximate
04:16AM 55.0940 -23.5548 91° East  Level FlightAware Approximate
04:17AM 55.0909 -23.3116 91° East  Level FlightAware Approximate
04:18AM 55.0873 -23.0685 91° East  Level FlightAware Approximate
04:19AM 55.0832 -22.8254 92° East  Level FlightAware Approximate
04:20AM 55.0786 -22.5823 92° East  Level FlightAware Approximate
04:21AM 55.0736 -22.3393 92° East  Level FlightAware Approximate
04:22AM 55.0680 -22.0964 92° East  Level FlightAware Approximate
04:23AM 55.0620 -21.8535 92° East  Level FlightAware Approximate
04:24AM 55.0555 -21.6108 93° East  Level FlightAware Approximate
04:25AM 55.0485 -21.3680 93° East  Level FlightAware Approximate
04:26AM 55.0410 -21.1254 93° East  Level FlightAware Approximate
04:27AM 55.0331 -20.8829 93° East  Level FlightAware Approximate
04:28AM 55.0246 -20.6405 93° East  Level FlightAware Approximate
04:29AM 55.0157 -20.3982 94° East  Level FlightAware Approximate
04:30AM 55.0063 -20.1560 94° East  Level FlightAware Approximate
04:31AM 54.9897 -19.9156 102° East  Level FlightAware Approximate
04:32AM 54.9603 -19.6785 102° East  Level FlightAware Approximate
04:33AM 54.9305 -19.4417 102° East  Level FlightAware Approximate
04:34AM 54.9002 -19.2054 102° East  Level FlightAware Approximate
04:35AM 54.8694 -18.9694 103° East  Level FlightAware Approximate
04:36AM 54.8382 -18.7337 103° East  Level FlightAware Approximate
04:37AM 54.8065 -18.4984 103° East  Level FlightAware Approximate
04:38AM 54.7744 -18.2635 103° East  Level FlightAware Approximate
04:39AM 54.7419 -18.0289 103° East  Level FlightAware Approximate
04:40AM 54.7088 -17.7948 104° East  Level FlightAware Approximate
04:41AM 54.6754 -17.5610 104° East  Level FlightAware Approximate
04:42AM 54.6414 -17.3276 104° East  Level FlightAware Approximate
04:43AM 54.6071 -17.0946 104° East  Level FlightAware Approximate
04:44AM 54.5723 -16.8620 104° East  Level FlightAware Approximate
04:45AM 54.5370 -16.6298 105° East  Level FlightAware Approximate
04:46AM 54.5013 -16.3979 105° East  Level FlightAware Approximate
04:47AM 54.4651 -16.1665 105° East  Level FlightAware Approximate
04:48AM 54.4286 -15.9356 105° East  Level FlightAware Approximate
04:49AM 54.3915 -15.7050 105° East  Level FlightAware Approximate
04:50AM 54.3541 -15.4748 106° East  Level FlightAware Approximate
04:51AM 54.3162 -15.2451 106° East  Level FlightAware Approximate
04:52AM 54.2778 -15.0158 106° East  Level FlightAware Approximate
04:53AM 54.2391 -14.7869 106° East  Level FlightAware Approximate
04:54AM 54.1998 -14.5585 106° East  Level FlightAware Approximate
04:55AM 54.1602 -14.3305 106° East  Level FlightAware Approximate
04:56AM 54.1201 -14.1029 107° East  Level FlightAware Approximate
04:56AM 54.7380 -14.0050 107° East 506 582 36,800  Level FlightAware
04:56AM 54.7000 -13.8550 114° Southeast 508 585 37,000 120 Climbing FlightAware
04:57AM 54.6460 -13.6420 114° Southeast 506 582 37,000  Level FlightAware
04:58AM 54.6030 -13.4730 114° Southeast 506 582 37,000  Level FlightAware
04:59AM 54.5660 -13.3290 114° Southeast 509 586 37,000  Level FlightAware
04:59AM 54.5260 -13.1750 114° Southeast 508 585 37,000  Level FlightAware
04:59AM 54.5120 -13.1230 115° Southeast 508 585 37,000  Level FlightAware
05:02AM 54.4000 -12.6990 114° Southeast 508 585 37,000  Level FlightAware
05:02AM 54.3430 -12.4840 114° Southeast 508 585 37,000  Level FlightAware
05:03AM 54.3040 -12.3380 115° Southeast 507 583 37,000  Level FlightAware
05:04AM 54.2580 -12.1710 115° Southeast 506 582 37,000  Level FlightAware
05:05AM 54.2150 -12.0110 115° Southeast 504 580 37,000  Level FlightAware
05:05AM 54.1800 -11.8860 116° Southeast 504 580 37,000  Level FlightAware
05:06AM 54.1460 -11.7610 115° Southeast 500 575 37,000  Level FlightAware
05:06AM 54.1010 -11.6000 115° Southeast 500 575 37,000  Level FlightAware
05:07AM 54.0600 -11.4550 116° Southeast 500 575 37,000  Level FlightAware
05:08AM 54.0250 -11.3290 115° Southeast 500 575 37,000  Level FlightAware
05:08AM 53.9800 -11.1700 116° Southeast 500 575 37,000  Level FlightAware
05:09AM 53.9400 -11.0300 116° Southeast 500 575 37,000  Level FlightAware
05:10AM 53.9040 -10.9040 116° Southeast 500 575 37,000  Level FlightAware
05:10AM 53.8590 -10.7470 116° Southeast 501 577 37,000  Level FlightAware
05:11AM 53.8170 -10.6030 116° Southeast 504 580 37,000  Level FlightAware
05:12AM 53.7760 -10.4630 116° Southeast 505 581 37,000  Level FlightAware
05:13AM 53.7290 -10.3020 116° Southeast 504 580 37,000  Level FlightAware
05:13AM 53.6870 -10.1630 117° Southeast 505 581 37,000  Level FlightAware
05:14AM 53.6410 -10.0070 116° Southeast 504 580 37,000  Level FlightAware
05:15AM 53.6040 -9.8830 117° Southeast 505 581 37,000  Level FlightAware
05:15AM 53.5620 -9.7450 117° Southeast 505 581 37,000  Level FlightAware
05:16AM 53.5140 -9.5850 117° Southeast 507 583 37,000  Level FlightAware
05:17AM 53.4720 -9.4490 117° Southeast 504 580 37,000  Level FlightAware
05:17AM 53.4270 -9.3030 117° Southeast 504 580 37,000  Level FlightAware
05:18AM 53.3830 -9.1600 117° Southeast 503 579 37,000  Level FlightAware
05:19AM 53.3360 -9.0060 117° Southeast 503 579 37,000 -120 Level FlightAware
05:19AM 53.2992 -8.8892 117° Southeast 496 571 36,900  Descending FlightAware UK
05:19AM 53.2970 -8.8830 117° Southeast 504 580 37,000 120 Climbing FlightAware
05:20AM 53.2540 -8.7460 118° Southeast 504 580 37,000  Level FlightAware
05:21AM 53.2090 -8.6040 118° Southeast 505 581 37,000  Level FlightAware
05:21AM 53.1720 -8.4860 118° Southeast 505 581 37,000  Level FlightAware
05:21AM 53.1679 -8.4733 118° Southeast 496 571 37,000  Level FlightAware UK
05:22AM 53.1345 -8.3689 118° Southeast 500 575 37,000  Level FlightAware UK
05:22AM 53.1210 -8.3270 118° Southeast 511 588 37,000  Level FlightAware
05:23AM 53.0780 -8.1930 118° Southeast 511 588 37,000 -120 Level FlightAware
05:23AM 53.0342 -8.0573 118° Southeast 498 573 36,900  Descending FlightAware UK
05:23AM 53.0280 -8.0370 118° Southeast 512 589 37,000 120 Climbing FlightAware
05:24AM 52.9820 -7.8960 118° Southeast 512 589 37,000  Level FlightAware
05:25AM 52.9329 -7.7463 118° Southeast 498 573 37,000  Level FlightAware UK
05:25AM 52.9320 -7.7440 118° Southeast 513 590 37,000  Level FlightAware
05:25AM 52.8840 -7.5990 119° Southeast 511 588 37,000  Level FlightAware
05:26AM 52.8410 -7.4670 118° Southeast 511 588 37,000  Level FlightAware
05:27AM 52.7968 -7.3353 118° Southeast 498 573 37,000  Level FlightAware UK
05:27AM 52.7960 -7.3340 118° Southeast 511 588 37,000  Level FlightAware
05:28AM 52.7460 -7.1840 119° Southeast 511 588 37,000  Level FlightAware
05:28AM 52.7050 -7.0630 119° Southeast 511 588 37,000  Level FlightAware
05:29AM 52.6620 -6.9340 119° Southeast 511 588 37,000  Level FlightAware
05:29AM 52.6595 -6.9268 119° Southeast 498 573 37,000  Level FlightAware UK
05:29AM 52.6130 -6.7900 119° Southeast 511 588 37,000  Level FlightAware
05:29AM 52.6112 -6.7846 119° Southeast 498 573 37,000  Level FlightAware UK
05:30AM 52.5765 -6.6832 119° Southeast 498 573 37,000  Level FlightAware UK
05:30AM 52.5670 -6.6560 119° Southeast 510 587 37,000  Level FlightAware
05:31AM 52.5180 -6.5130 119° Southeast 510 587 37,000  Level FlightAware
05:32AM 52.4650 -6.3610 120° Southeast 510 587 37,000  Level FlightAware
05:32AM 52.4220 -6.2360 119° Southeast 509 586 37,000  Level FlightAware
05:33AM 52.3650 -6.0730 120° Southeast 509 586 37,000  Level FlightAware
05:34AM 52.3178 -5.9398 120° Southeast 500 575 37,000  Level FlightAware UK
05:34AM 52.3190 -5.9420 120° Southeast 508 585 37,000  Level FlightAware
05:34AM 52.2720 -5.8100 120° Southeast 508 585 37,000  Level FlightAware
05:35AM 52.2333 -5.7015 120° Southeast 496 571 37,000  Level FlightAware UK
05:35AM 52.2210 -5.6670 120° Southeast 507 583 37,000  Level FlightAware
05:36AM 52.1730 -5.5310 120° Southeast 508 585 37,000  Level FlightAware
05:36AM 52.1200 -5.3850 121° Southeast 507 583 37,000  Level FlightAware
05:37AM 52.0720 -5.2540 121° Southeast 506 582 37,000  Level FlightAware
05:38AM 52.0210 -5.1120 120° Southeast 506 582 37,000  Level FlightAware
05:39AM 51.9870 -4.9670 120° Southeast 511 588 37,000  Level FlightAware
05:39AM 51.9862 -4.9619 120° Southeast 494 568 37,000  Level FlightAware UK
05:39AM 51.9726 -4.8478 120° Southeast 500 575 37,000  Level FlightAware UK
05:39AM 51.9690 -4.8180 120° Southeast 514 592 37,000  Level FlightAware
05:40AM 51.9510 -4.6640 101° East 514 592 37,000  Level FlightAware
05:41AM 51.9290 -4.4800 101° East 514 592 37,000  Level FlightAware
05:41AM 51.9110 -4.3280 101° East 513 590 37,000  Level FlightAware
05:42AM 51.8940 -4.1830 101° East 512 589 37,000  Level FlightAware
05:43AM 51.8740 -4.0230 101° East 511 588 37,000  Level FlightAware
05:43AM 51.8540 -3.8620 101° East 512 589 37,000  Level FlightAware
05:44AM 51.8356 -3.7165 102° East 512 589 37,000  Level FlightAware ADS-B
05:45AM 51.8200 -3.5939 102° East 511 588 37,000  Level FlightAware ADS-B
05:45AM 51.8049 -3.4751 102° East 513 590 37,000  Level FlightAware ADS-B
05:46AM 51.7903 -3.3619 102° East 513 590 37,000  Level FlightAware ADS-B
05:46AM 51.7748 -3.2427 102° East 514 592 37,000  Level FlightAware ADS-B
05:47AM 51.7597 -3.1272 102° East 513 590 37,000  Level FlightAware ADS-B
05:47AM 51.7414 -2.9887 102° East 513 590 37,000  Level FlightAware ADS-B
05:48AM 51.7244 -2.8616 102° East 513 590 37,000  Level FlightAware ADS-B
05:48AM 51.7079 -2.7392 102° East 513 590 37,000  Level FlightAware ADS-B
05:49AM 51.6920 -2.6214 102° East 512 589 37,000  Level FlightAware ADS-B
05:49AM 51.6764 -2.5078 102° East 512 589 37,000  Level FlightAware ADS-B
05:50AM 51.6609 -2.3950 102° East 512 589 37,000  Level FlightAware ADS-B
05:51AM 51.6427 -2.2642 103° East 511 588 37,000  Level FlightAware ADS-B
05:51AM 51.6268 -2.1507 103° East 512 589 37,000  Level FlightAware ADS-B
05:52AM 51.6110 -2.0391 103° East 511 588 37,000  Level FlightAware ADS-B
05:52AM 51.5951 -1.9276 103° East 511 588 37,000  Level FlightAware ADS-B
05:53AM 51.5782 -1.8093 103° East 510 587 37,000  Level FlightAware ADS-B
05:53AM 51.5634 -1.7033 103° East 510 587 37,000  Level FlightAware ADS-B
05:54AM 51.5516 -1.5972 100° East 510 587 37,000  Level FlightAware ADS-B
05:54AM 51.5414 -1.4844 98° East 510 587 37,000  Level FlightAware ADS-B
05:55AM 51.5312 -1.3701 98° East 509 586 37,000  Level FlightAware ADS-B
05:55AM 51.5195 -1.2403 98° East 509 586 37,000  Level FlightAware ADS-B
05:56AM 51.5091 -1.1276 98° East 509 586 37,000  Level FlightAware ADS-B
05:56AM 51.4975 -1.0044 99° East 508 585 37,000  Level FlightAware ADS-B
05:57AM 51.4865 -0.8873 99° East 509 586 37,000  Level FlightAware ADS-B
05:57AM 51.4757 -0.7738 99° East 510 587 37,000  Level FlightAware ADS-B
05:58AM 51.4645 -0.6576 99° East 510 587 37,000  Level FlightAware ADS-B
05:58AM 51.4530 -0.5388 99° East 510 587 37,000  Level FlightAware ADS-B
05:59AM 51.4418 -0.4256 99° East 510 587 37,000  Level FlightAware ADS-B
05:59AM 51.4307 -0.3136 99° East 510 587 37,000  Level FlightAware ADS-B
06:00AM 51.4194 -0.2017 99° East 511 588 37,000  Level FlightAware ADS-B
06:01AM 51.4043 -0.0521 99° East 509 586 37,000  Level FlightAware ADS-B
06:01AM 51.3926 0.0620 99° East 509 586 37,000  Level FlightAware ADS-B
06:02AM 51.3806 0.1778 99° East 508 585 37,000  Level FlightAware ADS-B
06:02AM 51.3688 0.2899 100° East 508 585 37,000  Level FlightAware ADS-B
06:03AM 51.3499 0.4685 100° East 507 583 37,000  Level FlightAware ADS-B
06:03AM 51.3378 0.5810 100° East 508 585 37,000  Level FlightAware ADS-B
06:04AM 51.3237 0.7100 100° East 508 585 37,000  Level FlightAware ADS-B
06:04AM 51.3114 0.8226 100° East 507 583 37,000  Level FlightAware ADS-B
06:05AM 51.2988 0.9365 100° East 507 583 37,000  Level FlightAware ADS-B
06:05AM 51.2862 1.0493 100° East 507 583 37,000  Level FlightAware ADS-B
06:06AM 51.2722 1.1736 100° East 506 582 37,000  Level FlightAware ADS-B
06:07AM 51.2564 1.2970 102° East 503 579 37,000  Level FlightAware ADS-B
06:07AM 51.2398 1.4051 104° East 502 578 37,000  Level FlightAware ADS-B
06:08AM 51.2230 1.5142 104° East 498 573 37,000  Level FlightAware UK
06:08AM 51.2230 1.5120 104° East 500 575 37,000  Level FlightAware
06:08AM 51.1999 1.6646 104° East 494 568 37,000  Level FlightAware UK
06:08AM 51.2010 1.6600 104° East 497 572 37,000  Level FlightAware
06:09AM 51.1854 1.7617 104° East 501 577 37,000  Level FlightAware ADS-B
06:09AM 51.1688 1.8726 103° East 497 572 37,000  Level FlightAware ADS-B
06:10AM 51.1504 1.9941 104° East 498 573 37,000  Level FlightAware ADS-B
06:10AM 51.1340 2.1012 104° East 497 572 37,000  Level FlightAware ADS-B
06:11AM 51.1138 2.2324 104° East 496 571 37,000  Level FlightAware ADS-B
06:12AM 51.0964 2.3461 104° East 496 571 37,000  Level FlightAware UK
06:12AM 51.0830 2.4301 104° East 494 568 37,000  Level FlightAware ADS-B
06:13AM 51.0633 2.5549 104° East 493 567 37,000  Level FlightAware ADS-B
06:13AM 51.0463 2.6622 104° East 492 566 37,000  Level FlightAware UK
06:13AM 51.0420 2.6870 104° East 492 566 37,000  Level FlightAware
06:14AM 51.0180 2.8380 104° East 491 565 37,000  Level FlightAware
06:14AM 50.9980 2.9650 104° East 490 564 37,000 -180 Level FlightAware
06:15AM 50.9721 3.1214 104° East 492 566 36,800 -660 Descending FlightAware UK
06:16AM 50.9600 3.1970 104° East 502 578 36,300 -1,800 Descending FlightAware
06:16AM 50.9372 3.3337 104° East 506 582 35,000 -2,100 Descending FlightAware UK
06:16AM 50.9340 3.3480 104° East 484 557 34,900 -720 Descending FlightAware
06:17AM 50.9079 3.4467 104° East 488 562 34,600 -420 Descending FlightAware UK
06:17AM 50.8940 3.4830 104° East 423 487 34,600 -2,340 Level FlightAware
06:18AM 50.8560 3.5850 121° Southeast 434 499 32,500 -3,000 Descending FlightAware
06:18AM 50.8100 3.7070 121° Southeast 434 499 30,500 -2,100 Descending FlightAware
06:19AM 50.7610 3.8400 120° Southeast 416 479 29,200 -1,560 Descending FlightAware
06:20AM 50.6930 4.0200 121° Southeast 411 473 27,400 -1,560 Descending FlightAware
06:21AM 50.6490 4.1340 121° Southeast 414 476 26,300 -1,620 Descending FlightAware
06:22AM 50.6110 4.2360 120° Southeast 407 468 25,200 -1,620 Descending FlightAware
06:23AM 50.5690 4.3440 121° Southeast 400 460 24,100 -1,680 Descending FlightAware
06:24AM 50.5000 4.5250 121° Southeast 384 442 22,100 -1,620 Descending FlightAware
06:25AM 50.4600 4.6280 121° Southeast 377 434 21,000 -1,560 Descending FlightAware
06:25AM 50.4220 4.7250 122° Southeast 371 427 19,900 -1,560 Descending FlightAware
06:26AM 50.3910 4.8070 121° Southeast 367 422 19,000 -1,500 Descending FlightAware
06:27AM 50.3480 4.9150 122° Southeast 366 421 17,800 -1,500 Descending FlightAware
06:27AM 50.3170 4.9950 121° Southeast 364 419 16,900 -1,500 Descending FlightAware
06:28AM 50.2740 5.1040 122° Southeast 357 411 15,700 -1,320 Descending FlightAware
06:29AM 50.2410 5.1870 122° Southeast 340 391 15,000 -600 Descending FlightAware
06:29AM 50.2130 5.2600 121° Southeast 310 357 15,000 -1,380 Level FlightAware
06:30AM 50.1820 5.3380 122° Southeast 331 381 13,300 -1,800 Descending FlightAware
06:31AM 50.1470 5.4270 122° Southeast 320 368 12,500 -1,080 Descending FlightAware
06:31AM 50.1160 5.5060 121° Southeast 304 350 11,800 -1,020 Descending FlightAware
06:32AM 50.0870 5.5840 120° Southeast 297 342 11,100 -600 Descending FlightAware
06:33AM 50.0590 5.6580 120° Southeast 292 336 11,000 -120 Descending FlightAware
06:33AM 50.0330 5.7260 121° Southeast 294 338 11,000  Level FlightAware
06:34AM 50.0050 5.7980 121° Southeast 293 337 11,000 -780 Level FlightAware
06:35AM 49.9640 5.9020 121° Southeast 289 333 9,800 -1,260 Descending FlightAware
06:35AM 49.9480 5.9450 120° Southeast 286 329 9,300 -960 Descending FlightAware
06:36AM 49.9310 5.9880 122° Southeast 282 325 9,000 -840 Descending FlightAware
06:37AM 49.9030 6.0580 122° Southeast 282 325 8,400 -960 Descending FlightAware
06:37AM 49.8870 6.0980 122° Southeast 279 321 8,000 -1,200 Descending FlightAware
06:37AM 49.8690 6.1420 122° Southeast 283 326 7,400 -1,560 Descending FlightAware
06:38AM 49.8440 6.2030 122° Southeast 284 327 6,500 -1,440 Descending FlightAware
06:38AM 49.8280 6.2410 123° Southeast 272 313 6,100 -1,080 Descending FlightAware
06:39AM 49.8110 6.2810 123° Southeast 249 287 5,600 -900 Descending FlightAware
06:40AM 49.7690 6.3810 123° Southeast 213 245 4,600 -780 Descending FlightAware
06:40AM 49.7590 6.3940 140° Southeast 206 237 4,500 -600 Descending FlightAware
06:41AM 49.7350 6.4170 148° Southeast 204 235 4,200 -720 Descending FlightAware
06:41AM 49.7250 6.4200 169° South 197 227 4,100 -720 Descending FlightAware
06:41AM 49.7010 6.4040 203° Southwest 182 209 3,700 -900 Descending FlightAware
06:42AM 49.6930 6.3900 229° Southwest 179 206 3,400 -1,140 Descending FlightAware
06:42AM 49.6830 6.3680 235° Southwest 183 211 3,000 -1,320 Descending FlightAware
06:45AM 49.6266 6.2115 241° Southwest  Level Estimated
06:46AM 49.6266 6.2115 201° Southwest  Level Estimated
06:47AM 49.6266 6.2115 201° Southwest  Level Estimated
06:48AM 49.6266 6.2115 201° Southwest  Level Estimated
06:49AM 49.6266 6.2115 201° Southwest  Level Estimated
06:50AM 49.6266 6.2115 201° Southwest  Level Estimated
06:51AM 49.6266 6.2115 201° Southwest  Level Estimated
06:52AM 49.6266 6.2115 201° Southwest  Level Estimated
06:53AM 49.6266 6.2115 201° Southwest  Level Estimated
06:54AM 49.6266 6.2115 201° Southwest  Level Estimated
06:55AM 49.6266 6.2115 201° Southwest  Level Estimated
06:56AM 49.6266 6.2115 201° Southwest  Level Estimated
06:57AM 49.6266 6.2115 201° Southwest  Level Estimated
06:58AM 49.6266 6.2115 201° Southwest  Level Estimated